Isit, Russia
Current Conditions -  °F | °C
As of 9:30 AM on Tuesday 25 Nov 2014 (Local Time) from UEEE Reporting Station
Clear Clear  
Wind Chill: -23°   Ceiling: Unl
Heat Index: -11°   Visibility: 6mi
Dew Point: -17°   Wind: 4mph
Humidity: 77%   Direction: 30°NNE
Pressure: 29.62"   Gusts: NA
Location:  60.82°N, 125.34°E
Report Text: UEEE 250030Z 03002MPS CAVOK M24/M27 Q1003 NOSIG RMK QFE74423490150
Loading
Personal Weather Stations






























Interactive Weather Map New forecast layout! Learn more

10-Day Weather Forecast

Advertisements
Track Severe Weather on mobile